createdAt,value
2018-06-23T00:01:05.772Z,79.10
2018-06-23T00:04:08.969Z,79.90
2018-06-23T00:07:12.142Z,79.80
2018-06-23T00:10:15.331Z,80.40
2018-06-23T00:13:18.612Z,80.10
2018-06-23T00:16:21.790Z,79.50
2018-06-23T00:19:24.975Z,80.30
2018-06-23T00:22:28.158Z,79.90
2018-06-23T00:25:36.790Z,80.20
2018-06-23T00:28:39.955Z,80.00
2018-06-23T00:31:43.144Z,80.60
2018-06-23T00:34:46.320Z,79.60
2018-06-23T00:37:49.490Z,80.10
2018-06-23T00:40:52.662Z,80.10
2018-06-23T00:43:55.857Z,81.50
2018-06-23T00:50:01.999Z,81.30
2018-06-23T00:53:05.208Z,82.00
2018-06-23T00:56:08.350Z,81.60
2018-06-23T00:59:22.975Z,82.40
2018-06-23T01:02:26.118Z,82.20
2018-06-23T01:05:29.317Z,81.20
2018-06-23T01:08:32.468Z,81.90
2018-06-23T01:11:35.769Z,80.90
2018-06-23T01:14:38.906Z,80.20
2018-06-23T01:17:42.059Z,80.10
2018-06-23T01:20:45.210Z,79.60
2018-06-23T01:23:48.355Z,79.90
2018-06-23T01:26:51.544Z,79.80
2018-06-23T01:29:54.689Z,79.20
2018-06-23T01:32:57.837Z,79.90
2018-06-23T01:36:01.043Z,80.10
2018-06-23T01:39:07.174Z,81.50
2018-06-23T01:42:10.378Z,81.00
2018-06-23T01:45:13.546Z,81.10
2018-06-23T01:48:16.734Z,81.60
2018-06-23T01:51:19.931Z,81.70
2018-06-23T01:54:23.107Z,81.70
2018-06-23T01:57:26.283Z,81.80
2018-06-23T02:00:29.484Z,81.90
2018-06-23T02:03:32.675Z,81.60
2018-06-23T02:06:35.858Z,81.80
2018-06-23T02:09:39.039Z,81.40
2018-06-23T02:12:42.207Z,81.80
2018-06-23T02:15:50.672Z,81.50
2018-06-23T02:18:59.191Z,81.60
2018-06-23T02:22:07.920Z,81.50
2018-06-23T02:25:16.688Z,81.50
2018-06-23T02:28:25.059Z,81.90
2018-06-23T02:31:33.661Z,81.80
2018-06-23T02:34:42.214Z,82.30
2018-06-23T02:37:45.487Z,82.20
2018-06-23T02:40:48.654Z,82.50
2018-06-23T02:43:51.834Z,82.50
2018-06-23T02:46:55.013Z,83.10
2018-06-23T02:49:59.935Z,84.00
2018-06-23T02:53:03.168Z,83.70
2018-06-23T02:56:06.355Z,83.60
2018-06-23T02:59:09.577Z,83.80
2018-06-23T03:02:12.784Z,84.60
2018-06-23T03:05:15.999Z,86.20
2018-06-23T03:08:19.198Z,88.20
2018-06-23T03:11:22.403Z,90.00
2018-06-23T03:14:25.699Z,90.50
2018-06-23T03:17:28.910Z,90.30
2018-06-23T03:20:32.586Z,90.40
2018-06-23T03:23:35.908Z,90.80
2018-06-23T03:26:39.122Z,90.60
2018-06-23T03:29:42.330Z,90.70
2018-06-23T03:32:45.634Z,90.20
2018-06-23T03:35:48.826Z,90.90
2018-06-23T03:38:52.056Z,91.00
2018-06-23T03:41:55.651Z,90.60
2018-06-23T03:44:58.862Z,90.70
2018-06-23T03:48:02.076Z,90.80
2018-06-23T03:51:05.322Z,91.50
2018-06-23T03:54:08.651Z,90.80
2018-06-23T03:57:11.867Z,91.20
2018-06-23T04:00:15.267Z,92.00
2018-06-23T04:06:21.550Z,92.30
2018-06-23T04:09:24.783Z,91.60
2018-06-23T04:12:27.999Z,92.20
2018-06-23T04:15:31.224Z,91.60
2018-06-23T04:18:34.432Z,90.90
2018-06-23T04:21:37.634Z,90.70
2018-06-23T04:27:43.820Z,90.50
2018-06-23T04:30:47.062Z,90.30
2018-06-23T04:33:50.491Z,89.10
2018-06-23T04:36:53.692Z,88.80
2018-06-23T04:39:56.908Z,89.60
2018-06-23T04:43:00.135Z,89.00
2018-06-23T04:46:03.374Z,88.20
2018-06-23T04:49:06.581Z,87.50
2018-06-23T04:52:09.772Z,86.50
2018-06-23T04:55:12.967Z,86.00
2018-06-23T04:58:22.822Z,86.90
2018-06-23T05:01:26.098Z,86.50
2018-06-23T05:04:29.283Z,85.90
2018-06-23T05:07:32.494Z,83.70
2018-06-23T05:10:35.671Z,82.80
2018-06-23T05:13:38.932Z,82.20
2018-06-23T05:16:42.348Z,82.10
2018-06-23T05:19:45.535Z,81.80
2018-06-23T05:22:48.713Z,80.80
2018-06-23T05:25:51.911Z,79.50
2018-06-23T05:28:55.096Z,79.20
2018-06-23T05:31:58.390Z,80.10
2018-06-23T05:35:01.669Z,80.70
2018-06-23T05:38:05.243Z,80.20
2018-06-23T05:41:08.468Z,79.30
2018-06-23T05:44:11.662Z,76.20
2018-06-23T05:47:14.922Z,68.00
2018-06-23T05:50:18.145Z,62.40
2018-06-23T05:53:21.391Z,58.60
2018-06-23T05:56:24.598Z,55.00
2018-06-23T05:59:27.870Z,52.30
2018-06-23T06:02:31.088Z,51.60
2018-06-23T06:05:34.502Z,52.90
2018-06-23T06:08:37.722Z,53.70
2018-06-23T06:11:40.981Z,56.70
2018-06-23T06:14:44.208Z,57.40
2018-06-23T06:17:47.428Z,61.80
2018-06-23T06:20:50.647Z,62.60
2018-06-23T06:23:53.962Z,59.90
2018-06-23T06:26:57.155Z,58.30
2018-06-23T06:30:00.394Z,58.70
2018-06-23T06:33:03.615Z,58.90
2018-06-23T06:36:06.819Z,55.80
2018-06-23T06:39:10.012Z,54.90
2018-06-23T06:42:13.445Z,57.20
2018-06-23T06:45:16.758Z,57.80
2018-06-23T06:48:20.048Z,59.10
2018-06-23T06:51:23.308Z,60.70
2018-06-23T06:54:26.955Z,62.50
2018-06-23T06:57:30.170Z,61.80
2018-06-23T07:00:33.447Z,61.20
2018-06-23T07:03:36.772Z,58.40
2018-06-23T07:06:39.904Z,53.40
2018-06-23T07:09:43.131Z,53.10
2018-06-23T07:12:46.383Z,54.30
2018-06-23T07:15:49.602Z,56.40
2018-06-23T07:21:55.807Z,59.20
2018-06-23T07:24:59.043Z,59.30
2018-06-23T07:31:05.727Z,59.30
2018-06-23T07:34:08.975Z,59.70
2018-06-23T07:37:12.231Z,60.00
2018-06-23T07:40:15.487Z,59.90
2018-06-23T07:43:18.785Z,59.60
2018-06-23T07:46:21.990Z,59.80
2018-06-23T07:49:25.427Z,58.10
2018-06-23T07:55:31.620Z,53.80
2018-06-23T07:58:34.874Z,53.60
2018-06-23T08:01:38.113Z,53.00
2018-06-23T08:04:41.307Z,54.10
2018-06-23T08:07:45.003Z,53.70
2018-06-23T08:10:48.195Z,51.10
2018-06-23T08:13:51.394Z,51.30
2018-06-23T08:16:54.598Z,53.50
2018-06-23T08:19:58.691Z,52.50
2018-06-23T08:23:01.962Z,52.80
2018-06-23T08:26:05.430Z,51.40
2018-06-23T08:29:08.627Z,49.60
2018-06-23T08:32:11.846Z,47.50
2018-06-23T08:35:15.058Z,48.20
2018-06-23T08:38:18.278Z,50.70
2018-06-23T08:41:21.751Z,51.30
2018-06-23T08:44:24.951Z,53.00
2018-06-23T08:47:28.171Z,55.20
2018-06-23T08:50:31.363Z,54.60
2018-06-23T08:53:34.555Z,55.30
2018-06-23T08:56:37.822Z,53.40
2018-06-23T08:59:41.302Z,53.60
2018-06-23T09:02:44.570Z,51.30
2018-06-23T09:05:47.731Z,51.70
2018-06-23T09:08:50.900Z,50.10
2018-06-23T09:11:54.063Z,47.80
2018-06-23T09:14:57.239Z,48.50
2018-06-23T09:18:00.438Z,51.20
2018-06-23T09:21:03.602Z,51.00
2018-06-23T09:24:06.766Z,49.40
2018-06-23T09:27:09.938Z,48.50
2018-06-23T09:33:16.064Z,43.40
2018-06-23T09:36:19.262Z,43.10
2018-06-23T09:39:22.476Z,44.00
2018-06-23T09:42:25.638Z,47.80
2018-06-23T09:45:28.819Z,52.30
2018-06-23T09:48:32.390Z,54.80
2018-06-23T09:51:35.595Z,54.90
2018-06-23T09:54:39.111Z,51.70
2018-06-23T09:57:42.312Z,51.40
2018-06-23T10:00:45.487Z,51.40
2018-06-23T10:03:48.680Z,50.40
2018-06-23T10:06:51.854Z,49.30
2018-06-23T10:09:55.041Z,50.20
2018-06-23T10:12:58.239Z,49.50
2018-06-23T10:16:01.410Z,50.60
2018-06-23T10:19:04.615Z,52.30
2018-06-23T10:22:07.807Z,53.60
2018-06-23T10:25:11.003Z,55.20
2018-06-23T10:28:14.191Z,53.60
2018-06-23T10:31:17.387Z,53.70
2018-06-23T10:37:23.636Z,53.30
2018-06-23T10:40:26.852Z,51.60
2018-06-23T10:43:30.075Z,46.60
2018-06-23T10:46:33.533Z,45.90
2018-06-23T10:49:36.784Z,42.80
2018-06-23T10:52:40.074Z,42.10
2018-06-23T10:58:46.258Z,44.90
2018-06-23T11:01:49.450Z,47.10
2018-06-23T11:04:52.897Z,47.20
2018-06-23T11:07:56.032Z,46.70
2018-06-23T11:10:59.234Z,46.30
2018-06-23T11:14:02.459Z,47.00
2018-06-23T11:17:05.675Z,47.30
2018-06-23T11:20:08.963Z,46.40
2018-06-23T11:23:12.175Z,46.30
2018-06-23T11:26:15.406Z,47.40
2018-06-23T11:29:18.617Z,47.80
2018-06-23T11:32:24.855Z,49.70
2018-06-23T11:35:28.058Z,50.30
2018-06-23T11:38:31.275Z,51.60
2018-06-23T11:41:34.487Z,51.70
2018-06-23T11:44:37.679Z,50.50
2018-06-23T11:47:40.863Z,48.70
2018-06-23T11:50:44.087Z,48.00
2018-06-23T11:53:47.364Z,48.70
2018-06-23T11:56:50.546Z,50.30
2018-06-23T11:59:53.757Z,50.20
2018-06-23T12:02:56.997Z,51.80
2018-06-23T12:06:00.199Z,51.60
2018-06-23T12:09:04.685Z,52.00
2018-06-23T12:12:07.991Z,51.50
2018-06-23T12:15:11.203Z,50.60
2018-06-23T12:18:14.439Z,50.50
2018-06-23T12:21:17.647Z,52.20
2018-06-23T12:24:20.862Z,52.50
2018-06-23T12:27:24.087Z,52.70
2018-06-23T12:30:27.327Z,52.90
2018-06-23T12:33:30.650Z,52.40
2018-06-23T12:36:33.863Z,53.30
2018-06-23T12:39:37.087Z,53.70
2018-06-23T12:42:40.393Z,52.90
2018-06-23T12:45:43.606Z,52.30
2018-06-23T12:48:46.944Z,51.50
2018-06-23T12:51:50.122Z,51.90
2018-06-23T12:57:56.284Z,51.90
2018-06-23T13:00:59.463Z,51.50
2018-06-23T13:04:02.663Z,51.10
2018-06-23T13:07:05.882Z,49.90
2018-06-23T13:10:09.063Z,49.90
2018-06-23T13:13:12.231Z,50.60
2018-06-23T13:16:15.403Z,50.90
2018-06-23T13:19:18.574Z,50.40
2018-06-23T13:22:22.311Z,51.60
2018-06-23T13:25:26.300Z,51.10
2018-06-23T13:28:29.487Z,47.80
2018-06-23T13:31:32.643Z,48.70
2018-06-23T13:34:35.828Z,48.10
2018-06-23T13:37:38.998Z,47.00
2018-06-23T13:40:42.306Z,46.50
2018-06-23T13:43:45.495Z,46.40
2018-06-23T13:46:48.994Z,48.10
2018-06-23T13:49:52.230Z,48.50
2018-06-23T13:52:56.107Z,49.80
2018-06-23T13:55:59.971Z,50.30
2018-06-23T13:59:05.196Z,50.50
2018-06-23T14:02:08.824Z,51.10
2018-06-23T14:05:12.549Z,49.60
2018-06-23T14:08:15.780Z,49.90
2018-06-23T14:11:19.051Z,50.40
2018-06-23T14:17:25.203Z,47.40
2018-06-23T14:20:28.379Z,48.60
2018-06-23T14:23:31.556Z,49.50
2018-06-23T14:26:34.726Z,49.60
2018-06-23T14:29:37.901Z,48.60
2018-06-23T14:32:41.055Z,50.60
2018-06-23T14:35:44.235Z,50.70
2018-06-23T14:38:47.422Z,50.10
2018-06-23T14:41:50.599Z,50.00
2018-06-23T15:44:34.962Z,51.80
2018-06-23T15:47:38.139Z,50.70
2018-06-23T15:50:41.386Z,51.70
2018-06-23T15:56:33.823Z,50.60
2018-06-23T16:05:48.738Z,52.90
2018-06-23T16:17:48.002Z,53.10
2018-06-23T16:20:51.172Z,52.40
2018-06-23T16:23:54.362Z,53.00
2018-06-23T16:26:57.534Z,53.20
2018-06-23T16:33:03.671Z,52.60
2018-06-23T16:36:06.876Z,53.60
2018-06-23T16:39:11.118Z,54.80
2018-06-23T16:42:14.310Z,55.50
2018-06-23T16:45:17.491Z,55.50
2018-06-23T16:55:04.839Z,55.90
2018-06-23T16:58:08.055Z,57.00
2018-06-23T17:01:11.259Z,56.30
2018-06-23T17:04:14.488Z,57.30
2018-06-23T17:07:17.691Z,56.60
2018-06-23T17:10:20.904Z,57.10
2018-06-23T17:13:24.120Z,57.40
2018-06-23T17:22:26.339Z,57.40
2018-06-23T17:27:56.122Z,57.30
2018-06-23T17:30:59.386Z,55.90
2018-06-23T17:34:02.600Z,56.50
2018-06-23T17:43:11.849Z,58.40
2018-06-23T17:46:15.080Z,57.60
2018-06-23T17:49:18.276Z,58.20
2018-06-23T17:53:37.251Z,57.90
2018-06-23T17:56:41.114Z,58.50
2018-06-23T17:59:44.326Z,57.40
2018-06-23T18:05:50.520Z,57.30
2018-06-23T18:08:53.742Z,58.20
2018-06-23T18:11:57.418Z,58.60
2018-06-23T18:15:00.636Z,59.40
2018-06-23T18:32:22.795Z,63.70
2018-06-23T18:35:25.988Z,63.80
2018-06-23T18:43:29.387Z,65.60
2018-06-23T18:46:32.582Z,65.10
2018-06-23T18:49:35.778Z,65.50
2018-06-23T18:55:35.751Z,66.00
2018-06-23T18:58:39.059Z,66.10
2018-06-23T19:07:53.063Z,67.10
2018-06-23T19:10:56.254Z,67.70
2018-06-23T19:13:59.474Z,68.20
2018-06-23T19:26:13.531Z,68.60
2018-06-23T19:29:16.842Z,69.10
2018-06-23T19:32:20.298Z,70.00
2018-06-23T19:35:24.046Z,69.50
2018-06-23T19:38:27.363Z,69.70
2018-06-23T19:41:30.567Z,69.70
2018-06-23T19:44:33.780Z,71.00
2018-06-23T19:47:36.994Z,69.70
2018-06-23T19:53:22.603Z,70.20
2018-06-23T19:56:25.802Z,70.80
2018-06-23T19:59:29.017Z,70.30
2018-06-23T20:05:35.339Z,70.30
2018-06-23T20:08:38.587Z,71.40
2018-06-23T20:11:41.790Z,71.30
2018-06-23T20:14:45.096Z,71.60
2018-06-23T20:17:48.255Z,71.30
2018-06-23T20:23:49.817Z,71.10
2018-06-23T20:30:11.504Z,71.50
2018-06-23T20:33:52.990Z,72.40
2018-06-23T20:49:10.383Z,72.30
2018-06-23T20:52:13.601Z,71.80
2018-06-23T20:58:19.784Z,72.40
2018-06-23T21:01:22.995Z,72.40
2018-06-23T21:10:37.778Z,73.30
2018-06-23T21:16:35.453Z,73.40
2018-06-23T21:19:38.659Z,73.70
2018-06-23T21:25:44.826Z,74.50
2018-06-23T21:28:48.048Z,75.10
2018-06-23T21:31:51.254Z,75.10
2018-06-23T21:34:54.467Z,74.90
2018-06-23T21:41:07.107Z,76.50
2018-06-23T21:47:12.337Z,76.10
2018-06-23T21:50:15.644Z,76.50
2018-06-23T21:56:20.349Z,77.10
2018-06-23T22:02:25.694Z,76.40
2018-06-23T22:08:29.470Z,75.50
2018-06-23T22:11:32.674Z,75.80
2018-06-23T22:14:35.899Z,74.80
2018-06-23T22:20:43.396Z,76.30
2018-06-23T22:26:49.650Z,76.20
2018-06-23T22:29:52.866Z,76.50
2018-06-23T22:32:56.090Z,75.80
2018-06-23T22:35:59.357Z,75.20
2018-06-23T22:39:02.595Z,75.70
2018-06-23T22:42:05.794Z,75.40
2018-06-23T22:48:12.024Z,76.00
2018-06-23T22:51:15.211Z,74.70
2018-06-23T22:54:18.393Z,75.50
2018-06-23T23:00:14.243Z,75.80
2018-06-23T23:03:17.410Z,76.10
2018-06-23T23:06:20.605Z,75.10
2018-06-23T23:18:14.753Z,75.90
2018-06-23T23:24:20.990Z,78.50
2018-06-23T23:30:27.139Z,78.20
2018-06-23T23:33:30.306Z,77.70
2018-06-23T23:36:33.492Z,77.00
2018-06-23T23:39:36.768Z,76.70
2018-06-23T23:42:39.918Z,76.00
2018-06-23T23:45:43.094Z,76.70
2018-06-23T23:48:46.259Z,76.30
2018-06-23T23:54:52.432Z,77.10
2018-06-23T23:57:55.630Z,77.90
